sensor_id;sensor_type;location;lat;lon;timestamp;P1;durP1;ratioP1;P2;durP2;ratioP2
2928;SDS011;1474;51.460;7.150;2023-04-15T00:00:48;6.75;;;4.43;;
2928;SDS011;1474;51.460;7.150;2023-04-15T00:03:15;5.60;;;3.72;;
2928;SDS011;1474;51.460;7.150;2023-04-15T00:05:41;9.48;;;5.38;;
2928;SDS011;1474;51.460;7.150;2023-04-15T00:08:07;8.32;;;4.18;;
2928;SDS011;1474;51.460;7.150;2023-04-15T00:10:33;7.72;;;4.85;;
2928;SDS011;1474;51.460;7.150;2023-04-15T00:12:58;5.47;;;3.95;;
2928;SDS011;1474;51.460;7.150;2023-04-15T00:15:24;7.47;;;4.45;;
2928;SDS011;1474;51.460;7.150;2023-04-15T00:17:51;7.47;;;4.80;;
2928;SDS011;1474;51.460;7.150;2023-04-15T00:20:16;5.53;;;4.15;;
2928;SDS011;1474;51.460;7.150;2023-04-15T00:22:42;6.07;;;3.30;;
2928;SDS011;1474;51.460;7.150;2023-04-15T00:25:08;6.88;;;5.47;;
2928;SDS011;1474;51.460;7.150;2023-04-15T00:27:33;7.10;;;4.38;;
2928;SDS011;1474;51.460;7.150;2023-04-15T00:29:59;7.43;;;4.70;;
2928;SDS011;1474;51.460;7.150;2023-04-15T00:32:25;8.15;;;4.38;;
2928;SDS011;1474;51.460;7.150;2023-04-15T00:34:50;5.55;;;4.40;;
2928;SDS011;1474;51.460;7.150;2023-04-15T00:37:16;7.30;;;4.45;;
2928;SDS011;1474;51.460;7.150;2023-04-15T00:39:42;7.32;;;4.07;;
2928;SDS011;1474;51.460;7.150;2023-04-15T00:42:08;6.65;;;4.47;;
2928;SDS011;1474;51.460;7.150;2023-04-15T00:44:34;6.57;;;3.90;;
2928;SDS011;1474;51.460;7.150;2023-04-15T00:47:00;7.45;;;5.10;;
2928;SDS011;1474;51.460;7.150;2023-04-15T00:49:28;5.95;;;4.50;;
2928;SDS011;1474;51.460;7.150;2023-04-15T00:51:56;8.02;;;4.97;;
2928;SDS011;1474;51.460;7.150;2023-04-15T00:54:21;8.55;;;5.05;;
2928;SDS011;1474;51.460;7.150;2023-04-15T00:56:47;7.00;;;4.90;;
2928;SDS011;1474;51.460;7.150;2023-04-15T00:59:13;9.63;;;4.90;;
2928;SDS011;1474;51.460;7.150;2023-04-15T01:01:39;6.38;;;4.90;;
2928;SDS011;1474;51.460;7.150;2023-04-15T01:04:05;6.55;;;5.30;;
2928;SDS011;1474;51.460;7.150;2023-04-15T01:06:32;6.53;;;4.28;;
2928;SDS011;1474;51.460;7.150;2023-04-15T01:08:58;5.45;;;4.15;;
2928;SDS011;1474;51.460;7.150;2023-04-15T01:11:24;6.22;;;4.85;;
2928;SDS011;1474;51.460;7.150;2023-04-15T01:13:50;5.47;;;4.60;;
2928;SDS011;1474;51.460;7.150;2023-04-15T01:16:18;8.48;;;4.72;;
2928;SDS011;1474;51.460;7.150;2023-04-15T01:18:44;9.18;;;4.80;;
2928;SDS011;1474;51.460;7.150;2023-04-15T01:21:10;7.43;;;4.97;;
2928;SDS011;1474;51.460;7.150;2023-04-15T01:23:36;9.95;;;6.10;;
2928;SDS011;1474;51.460;7.150;2023-04-15T01:26:03;7.57;;;4.63;;
2928;SDS011;1474;51.460;7.150;2023-04-15T01:28:31;10.65;;;6.20;;
2928;SDS011;1474;51.460;7.150;2023-04-15T01:33:32;5.85;;;4.38;;
2928;SDS011;1474;51.460;7.150;2023-04-15T01:35:58;6.55;;;4.38;;
2928;SDS011;1474;51.460;7.150;2023-04-15T01:38:25;7.65;;;5.82;;
2928;SDS011;1474;51.460;7.150;2023-04-15T01:40:51;9.98;;;5.57;;
2928;SDS011;1474;51.460;7.150;2023-04-15T01:43:17;5.95;;;5.07;;
2928;SDS011;1474;51.460;7.150;2023-04-15T01:45:43;8.18;;;5.40;;
2928;SDS011;1474;51.460;7.150;2023-04-15T01:48:09;7.78;;;4.85;;
2928;SDS011;1474;51.460;7.150;2023-04-15T01:50:36;7.43;;;4.95;;
2928;SDS011;1474;51.460;7.150;2023-04-15T01:53:02;7.90;;;5.53;;
2928;SDS011;1474;51.460;7.150;2023-04-15T01:55:28;8.50;;;4.95;;
2928;SDS011;1474;51.460;7.150;2023-04-15T01:57:54;8.98;;;6.25;;
2928;SDS011;1474;51.460;7.150;2023-04-15T02:00:21;6.68;;;5.32;;
2928;SDS011;1474;51.460;7.150;2023-04-15T02:02:47;6.80;;;4.72;;
2928;SDS011;1474;51.460;7.150;2023-04-15T02:05:13;10.23;;;5.90;;
2928;SDS011;1474;51.460;7.150;2023-04-15T02:07:40;8.68;;;5.90;;
2928;SDS011;1474;51.460;7.150;2023-04-15T02:10:09;8.43;;;6.13;;
2928;SDS011;1474;51.460;7.150;2023-04-15T02:12:37;7.40;;;5.82;;
2928;SDS011;1474;51.460;7.150;2023-04-15T02:15:03;6.82;;;5.38;;
2928;SDS011;1474;51.460;7.150;2023-04-15T02:17:29;8.90;;;5.15;;
2928;SDS011;1474;51.460;7.150;2023-04-15T02:19:55;8.23;;;5.72;;
2928;SDS011;1474;51.460;7.150;2023-04-15T02:22:21;7.50;;;5.50;;
2928;SDS011;1474;51.460;7.150;2023-04-15T02:24:47;8.55;;;5.63;;
2928;SDS011;1474;51.460;7.150;2023-04-15T02:27:15;7.07;;;5.53;;
2928;SDS011;1474;51.460;7.150;2023-04-15T02:29:42;11.50;;;6.65;;
2928;SDS011;1474;51.460;7.150;2023-04-15T02:32:09;12.07;;;6.45;;
2928;SDS011;1474;51.460;7.150;2023-04-15T02:34:35;6.80;;;5.43;;
2928;SDS011;1474;51.460;7.150;2023-04-15T02:37:05;9.43;;;5.90;;
2928;SDS011;1474;51.460;7.150;2023-04-15T02:39:31;6.88;;;5.15;;
2928;SDS011;1474;51.460;7.150;2023-04-15T02:41:57;8.15;;;5.82;;
2928;SDS011;1474;51.460;7.150;2023-04-15T02:44:24;9.10;;;6.07;;
2928;SDS011;1474;51.460;7.150;2023-04-15T02:46:49;8.63;;;6.10;;
2928;SDS011;1474;51.460;7.150;2023-04-15T02:49:16;12.60;;;6.22;;
2928;SDS011;1474;51.460;7.150;2023-04-15T02:51:42;8.05;;;5.65;;
2928;SDS011;1474;51.460;7.150;2023-04-15T02:54:13;11.18;;;6.88;;
2928;SDS011;1474;51.460;7.150;2023-04-15T02:56:42;11.35;;;6.32;;
2928;SDS011;1474;51.460;7.150;2023-04-15T02:59:08;6.55;;;5.53;;
2928;SDS011;1474;51.460;7.150;2023-04-15T03:01:33;9.00;;;6.53;;
2928;SDS011;1474;51.460;7.150;2023-04-15T03:03:59;8.95;;;6.75;;
2928;SDS011;1474;51.460;7.150;2023-04-15T03:06:25;10.80;;;5.90;;
2928;SDS011;1474;51.460;7.150;2023-04-15T03:08:51;12.30;;;6.28;;
2928;SDS011;1474;51.460;7.150;2023-04-15T03:11:16;7.38;;;5.57;;
2928;SDS011;1474;51.460;7.150;2023-04-15T03:13:42;15.38;;;6.20;;
2928;SDS011;1474;51.460;7.150;2023-04-15T03:16:08;10.30;;;6.75;;
2928;SDS011;1474;51.460;7.150;2023-04-15T03:18:34;6.95;;;5.60;;
2928;SDS011;1474;51.460;7.150;2023-04-15T03:21:00;8.88;;;6.82;;
2928;SDS011;1474;51.460;7.150;2023-04-15T03:23:26;10.05;;;6.95;;
2928;SDS011;1474;51.460;7.150;2023-04-15T03:25:52;7.18;;;5.65;;
2928;SDS011;1474;51.460;7.150;2023-04-15T03:28:21;9.20;;;7.40;;
2928;SDS011;1474;51.460;7.150;2023-04-15T03:30:46;10.63;;;7.20;;
2928;SDS011;1474;51.460;7.150;2023-04-15T03:33:12;9.55;;;6.53;;
2928;SDS011;1474;51.460;7.150;2023-04-15T03:35:37;9.30;;;6.88;;
2928;SDS011;1474;51.460;7.150;2023-04-15T03:38:03;12.70;;;7.60;;
2928;SDS011;1474;51.460;7.150;2023-04-15T03:40:29;9.77;;;6.75;;
2928;SDS011;1474;51.460;7.150;2023-04-15T03:42:54;10.57;;;6.57;;
2928;SDS011;1474;51.460;7.150;2023-04-15T03:45:20;14.40;;;7.65;;
2928;SDS011;1474;51.460;7.150;2023-04-15T03:47:45;15.23;;;8.35;;
2928;SDS011;1474;51.460;7.150;2023-04-15T03:50:11;10.80;;;7.85;;
2928;SDS011;1474;51.460;7.150;2023-04-15T03:52:37;11.90;;;7.43;;
2928;SDS011;1474;51.460;7.150;2023-04-15T03:55:03;9.93;;;7.00;;
2928;SDS011;1474;51.460;7.150;2023-04-15T03:57:29;12.18;;;7.53;;
2928;SDS011;1474;51.460;7.150;2023-04-15T03:59:55;10.27;;;6.55;;
2928;SDS011;1474;51.460;7.150;2023-04-15T04:02:20;8.90;;;6.43;;
2928;SDS011;1474;51.460;7.150;2023-04-15T04:04:47;9.00;;;7.28;;
2928;SDS011;1474;51.460;7.150;2023-04-15T04:07:15;11.95;;;6.45;;
2928;SDS011;1474;51.460;7.150;2023-04-15T04:09:41;11.48;;;6.68;;
2928;SDS011;1474;51.460;7.150;2023-04-15T04:12:07;8.35;;;6.68;;
2928;SDS011;1474;51.460;7.150;2023-04-15T04:14:33;8.88;;;6.57;;
2928;SDS011;1474;51.460;7.150;2023-04-15T04:16:58;9.88;;;6.90;;
2928;SDS011;1474;51.460;7.150;2023-04-15T04:19:24;12.50;;;8.02;;
2928;SDS011;1474;51.460;7.150;2023-04-15T04:21:50;10.05;;;6.53;;
2928;SDS011;1474;51.460;7.150;2023-04-15T04:24:16;7.80;;;5.90;;
2928;SDS011;1474;51.460;7.150;2023-04-15T04:26:41;7.80;;;5.82;;
2928;SDS011;1474;51.460;7.150;2023-04-15T04:29:07;8.48;;;6.45;;
2928;SDS011;1474;51.460;7.150;2023-04-15T04:31:33;9.80;;;6.57;;
2928;SDS011;1474;51.460;7.150;2023-04-15T04:33:58;8.13;;;6.97;;
2928;SDS011;1474;51.460;7.150;2023-04-15T04:36:24;9.02;;;6.10;;
2928;SDS011;1474;51.460;7.150;2023-04-15T04:38:50;12.23;;;6.45;;
2928;SDS011;1474;51.460;7.150;2023-04-15T04:41:21;8.23;;;5.38;;
2928;SDS011;1474;51.460;7.150;2023-04-15T04:43:46;7.05;;;5.22;;
2928;SDS011;1474;51.460;7.150;2023-04-15T04:46:13;11.13;;;6.00;;
2928;SDS011;1474;51.460;7.150;2023-04-15T04:48:38;10.68;;;7.05;;
2928;SDS011;1474;51.460;7.150;2023-04-15T04:51:04;9.23;;;6.22;;
2928;SDS011;1474;51.460;7.150;2023-04-15T04:53:30;11.73;;;6.18;;
2928;SDS011;1474;51.460;7.150;2023-04-15T04:55:56;9.15;;;5.80;;
2928;SDS011;1474;51.460;7.150;2023-04-15T04:58:22;8.18;;;5.50;;
2928;SDS011;1474;51.460;7.150;2023-04-15T05:00:47;9.50;;;6.78;;
2928;SDS011;1474;51.460;7.150;2023-04-15T05:03:13;7.57;;;5.82;;
2928;SDS011;1474;51.460;7.150;2023-04-15T05:05:39;10.20;;;7.40;;
2928;SDS011;1474;51.460;7.150;2023-04-15T05:08:05;9.88;;;6.57;;
2928;SDS011;1474;51.460;7.150;2023-04-15T05:10:31;8.77;;;5.95;;
2928;SDS011;1474;51.460;7.150;2023-04-15T05:12:57;10.88;;;6.78;;
2928;SDS011;1474;51.460;7.150;2023-04-15T05:15:23;9.50;;;6.72;;
2928;SDS011;1474;51.460;7.150;2023-04-15T05:17:48;9.05;;;6.28;;
2928;SDS011;1474;51.460;7.150;2023-04-15T05:20:14;9.93;;;6.63;;
2928;SDS011;1474;51.460;7.150;2023-04-15T05:22:40;11.70;;;6.05;;
2928;SDS011;1474;51.460;7.150;2023-04-15T05:25:05;11.15;;;6.53;;
2928;SDS011;1474;51.460;7.150;2023-04-15T05:27:31;9.30;;;7.53;;
2928;SDS011;1474;51.460;7.150;2023-04-15T05:29:57;12.35;;;6.38;;
2928;SDS011;1474;51.460;7.150;2023-04-15T05:32:23;13.27;;;7.15;;
2928;SDS011;1474;51.460;7.150;2023-04-15T05:34:48;11.75;;;8.10;;
2928;SDS011;1474;51.460;7.150;2023-04-15T05:37:14;12.20;;;8.63;;
2928;SDS011;1474;51.460;7.150;2023-04-15T05:39:40;10.05;;;7.20;;
2928;SDS011;1474;51.460;7.150;2023-04-15T05:42:06;11.75;;;7.00;;
2928;SDS011;1474;51.460;7.150;2023-04-15T05:44:32;10.07;;;6.45;;
2928;SDS011;1474;51.460;7.150;2023-04-15T05:46:57;9.40;;;6.35;;
2928;SDS011;1474;51.460;7.150;2023-04-15T05:49:23;12.93;;;7.07;;
2928;SDS011;1474;51.460;7.150;2023-04-15T05:51:48;9.60;;;6.53;;
2928;SDS011;1474;51.460;7.150;2023-04-15T05:54:14;9.20;;;7.05;;
2928;SDS011;1474;51.460;7.150;2023-04-15T05:56:40;11.85;;;7.15;;
2928;SDS011;1474;51.460;7.150;2023-04-15T05:59:05;10.32;;;6.90;;
2928;SDS011;1474;51.460;7.150;2023-04-15T06:01:32;17.45;;;7.97;;
2928;SDS011;1474;51.460;7.150;2023-04-15T06:03:58;9.45;;;6.90;;
2928;SDS011;1474;51.460;7.150;2023-04-15T06:06:24;15.82;;;8.27;;
2928;SDS011;1474;51.460;7.150;2023-04-15T06:08:51;13.25;;;7.55;;
2928;SDS011;1474;51.460;7.150;2023-04-15T06:11:17;10.63;;;7.20;;
2928;SDS011;1474;51.460;7.150;2023-04-15T06:13:45;14.00;;;7.88;;
2928;SDS011;1474;51.460;7.150;2023-04-15T06:16:10;11.55;;;7.03;;
2928;SDS011;1474;51.460;7.150;2023-04-15T06:18:36;11.23;;;8.27;;
2928;SDS011;1474;51.460;7.150;2023-04-15T06:21:02;10.50;;;6.32;;
2928;SDS011;1474;51.460;7.150;2023-04-15T06:23:28;9.23;;;6.88;;
2928;SDS011;1474;51.460;7.150;2023-04-15T06:25:54;10.52;;;7.25;;
2928;SDS011;1474;51.460;7.150;2023-04-15T06:28:20;9.75;;;6.95;;
2928;SDS011;1474;51.460;7.150;2023-04-15T06:30:45;9.70;;;7.80;;
2928;SDS011;1474;51.460;7.150;2023-04-15T06:33:11;8.35;;;5.90;;
2928;SDS011;1474;51.460;7.150;2023-04-15T06:35:37;11.95;;;7.45;;
2928;SDS011;1474;51.460;7.150;2023-04-15T06:38:03;8.20;;;7.22;;
2928;SDS011;1474;51.460;7.150;2023-04-15T06:40:29;17.42;;;8.73;;
2928;SDS011;1474;51.460;7.150;2023-04-15T06:42:55;11.45;;;8.23;;
2928;SDS011;1474;51.460;7.150;2023-04-15T06:45:20;13.05;;;8.48;;
2928;SDS011;1474;51.460;7.150;2023-04-15T06:47:46;13.10;;;8.02;;
2928;SDS011;1474;51.460;7.150;2023-04-15T06:50:12;10.00;;;7.32;;
2928;SDS011;1474;51.460;7.150;2023-04-15T06:52:37;13.38;;;8.60;;
2928;SDS011;1474;51.460;7.150;2023-04-15T06:55:03;12.63;;;8.82;;
2928;SDS011;1474;51.460;7.150;2023-04-15T06:57:29;12.45;;;8.23;;
2928;SDS011;1474;51.460;7.150;2023-04-15T06:59:55;13.15;;;9.02;;
2928;SDS011;1474;51.460;7.150;2023-04-15T07:02:21;11.68;;;8.30;;
2928;SDS011;1474;51.460;7.150;2023-04-15T07:04:47;11.15;;;7.97;;
2928;SDS011;1474;51.460;7.150;2023-04-15T07:07:12;14.00;;;9.43;;
2928;SDS011;1474;51.460;7.150;2023-04-15T07:09:39;14.70;;;7.97;;
2928;SDS011;1474;51.460;7.150;2023-04-15T07:12:05;15.38;;;9.18;;
2928;SDS011;1474;51.460;7.150;2023-04-15T07:14:31;10.02;;;6.65;;
2928;SDS011;1474;51.460;7.150;2023-04-15T07:16:56;14.38;;;8.65;;
2928;SDS011;1474;51.460;7.150;2023-04-15T07:19:22;11.27;;;8.40;;
2928;SDS011;1474;51.460;7.150;2023-04-15T07:21:48;11.50;;;8.45;;
2928;SDS011;1474;51.460;7.150;2023-04-15T07:24:13;14.38;;;9.05;;
2928;SDS011;1474;51.460;7.150;2023-04-15T07:26:42;11.27;;;8.02;;
2928;SDS011;1474;51.460;7.150;2023-04-15T07:29:08;9.40;;;6.72;;
2928;SDS011;1474;51.460;7.150;2023-04-15T07:31:34;11.00;;;7.13;;
2928;SDS011;1474;51.460;7.150;2023-04-15T07:34:01;7.47;;;5.43;;
2928;SDS011;1474;51.460;7.150;2023-04-15T07:36:27;9.10;;;6.32;;
2928;SDS011;1474;51.460;7.150;2023-04-15T07:38:53;9.32;;;6.35;;
2928;SDS011;1474;51.460;7.150;2023-04-15T07:41:19;7.78;;;5.15;;
2928;SDS011;1474;51.460;7.150;2023-04-15T07:43:45;8.32;;;5.13;;
2928;SDS011;1474;51.460;7.150;2023-04-15T07:46:12;9.10;;;6.07;;
2928;SDS011;1474;51.460;7.150;2023-04-15T07:48:38;10.52;;;6.85;;
2928;SDS011;1474;51.460;7.150;2023-04-15T07:51:04;12.93;;;8.63;;
2928;SDS011;1474;51.460;7.150;2023-04-15T07:53:30;10.85;;;7.10;;
2928;SDS011;1474;51.460;7.150;2023-04-15T07:55:57;9.55;;;6.97;;
2928;SDS011;1474;51.460;7.150;2023-04-15T07:58:23;12.88;;;8.43;;
2928;SDS011;1474;51.460;7.150;2023-04-15T08:00:48;10.32;;;6.93;;
2928;SDS011;1474;51.460;7.150;2023-04-15T08:03:14;11.50;;;6.60;;
2928;SDS011;1474;51.460;7.150;2023-04-15T08:05:40;10.13;;;6.65;;
2928;SDS011;1474;51.460;7.150;2023-04-15T08:08:06;11.00;;;7.38;;
2928;SDS011;1474;51.460;7.150;2023-04-15T08:10:32;11.00;;;6.70;;
2928;SDS011;1474;51.460;7.150;2023-04-15T08:12:58;11.48;;;6.80;;
2928;SDS011;1474;51.460;7.150;2023-04-15T08:15:24;7.57;;;6.00;;
2928;SDS011;1474;51.460;7.150;2023-04-15T08:17:50;8.73;;;6.18;;
2928;SDS011;1474;51.460;7.150;2023-04-15T08:20:16;10.40;;;6.75;;
2928;SDS011;1474;51.460;7.150;2023-04-15T08:22:41;10.10;;;6.30;;
2928;SDS011;1474;51.460;7.150;2023-04-15T08:25:07;7.57;;;5.22;;
2928;SDS011;1474;51.460;7.150;2023-04-15T08:27:34;6.97;;;4.72;;
2928;SDS011;1474;51.460;7.150;2023-04-15T08:30:00;6.18;;;3.65;;
2928;SDS011;1474;51.460;7.150;2023-04-15T08:32:25;8.13;;;3.47;;
2928;SDS011;1474;51.460;7.150;2023-04-15T08:34:51;5.78;;;4.15;;
2928;SDS011;1474;51.460;7.150;2023-04-15T08:37:17;4.95;;;3.38;;
2928;SDS011;1474;51.460;7.150;2023-04-15T08:39:43;8.32;;;4.65;;
2928;SDS011;1474;51.460;7.150;2023-04-15T08:42:15;9.30;;;4.40;;
2928;SDS011;1474;51.460;7.150;2023-04-15T08:44:42;7.13;;;3.97;;
2928;SDS011;1474;51.460;7.150;2023-04-15T08:47:08;6.50;;;3.55;;
2928;SDS011;1474;51.460;7.150;2023-04-15T08:49:39;5.43;;;3.78;;
2928;SDS011;1474;51.460;7.150;2023-04-15T08:52:07;7.10;;;3.90;;
2928;SDS011;1474;51.460;7.150;2023-04-15T08:54:33;5.50;;;3.42;;
2928;SDS011;1474;51.460;7.150;2023-04-15T08:57:00;5.55;;;4.18;;
2928;SDS011;1474;51.460;7.150;2023-04-15T08:59:29;7.40;;;3.38;;
2928;SDS011;1474;51.460;7.150;2023-04-15T09:01:56;5.63;;;3.80;;
2928;SDS011;1474;51.460;7.150;2023-04-15T09:04:22;7.13;;;4.32;;
2928;SDS011;1474;51.460;7.150;2023-04-15T09:06:47;4.03;;;2.72;;
2928;SDS011;1474;51.460;7.150;2023-04-15T09:09:13;4.93;;;2.92;;
2928;SDS011;1474;51.460;7.150;2023-04-15T09:11:39;4.57;;;2.92;;
2928;SDS011;1474;51.460;7.150;2023-04-15T09:14:04;3.20;;;2.17;;
2928;SDS011;1474;51.460;7.150;2023-04-15T09:16:30;3.42;;;2.38;;
2928;SDS011;1474;51.460;7.150;2023-04-15T09:18:56;3.85;;;2.50;;
2928;SDS011;1474;51.460;7.150;2023-04-15T09:21:22;4.47;;;2.30;;
2928;SDS011;1474;51.460;7.150;2023-04-15T09:23:56;4.20;;;2.42;;
2928;SDS011;1474;51.460;7.150;2023-04-15T09:26:35;3.80;;;2.45;;
2928;SDS011;1474;51.460;7.150;2023-04-15T09:29:06;3.53;;;2.60;;
2928;SDS011;1474;51.460;7.150;2023-04-15T09:34:20;3.30;;;2.28;;
2928;SDS011;1474;51.460;7.150;2023-04-15T09:40:08;2.95;;;2.30;;
2928;SDS011;1474;51.460;7.150;2023-04-15T09:42:34;3.72;;;2.95;;
2928;SDS011;1474;51.460;7.150;2023-04-15T09:45:10;3.85;;;2.88;;
2928;SDS011;1474;51.460;7.150;2023-04-15T09:47:36;4.43;;;2.85;;
2928;SDS011;1474;51.460;7.150;2023-04-15T09:50:02;6.25;;;3.20;;
2928;SDS011;1474;51.460;7.150;2023-04-15T09:52:28;5.93;;;3.65;;
2928;SDS011;1474;51.460;7.150;2023-04-15T09:54:55;4.57;;;3.42;;
2928;SDS011;1474;51.460;7.150;2023-04-15T09:57:22;4.68;;;3.05;;
2928;SDS011;1474;51.460;7.150;2023-04-15T09:59:48;6.07;;;3.33;;
2928;SDS011;1474;51.460;7.150;2023-04-15T10:02:15;4.38;;;3.38;;
2928;SDS011;1474;51.460;7.150;2023-04-15T10:04:43;5.88;;;4.22;;
2928;SDS011;1474;51.460;7.150;2023-04-15T10:07:12;5.57;;;3.65;;
2928;SDS011;1474;51.460;7.150;2023-04-15T10:09:39;4.07;;;3.10;;
2928;SDS011;1474;51.460;7.150;2023-04-15T10:12:05;5.55;;;2.85;;
2928;SDS011;1474;51.460;7.150;2023-04-15T10:14:32;4.22;;;2.60;;
2928;SDS011;1474;51.460;7.150;2023-04-15T10:17:00;7.20;;;3.58;;
2928;SDS011;1474;51.460;7.150;2023-04-15T10:19:30;3.92;;;2.83;;
2928;SDS011;1474;51.460;7.150;2023-04-15T10:21:57;4.10;;;2.88;;
2928;SDS011;1474;51.460;7.150;2023-04-15T10:24:23;4.38;;;2.88;;
2928;SDS011;1474;51.460;7.150;2023-04-15T10:26:50;5.88;;;3.28;;
2928;SDS011;1474;51.460;7.150;2023-04-15T10:29:16;5.07;;;3.35;;
2928;SDS011;1474;51.460;7.150;2023-04-15T10:31:43;6.20;;;3.72;;
2928;SDS011;1474;51.460;7.150;2023-04-15T10:34:10;4.28;;;2.95;;
2928;SDS011;1474;51.460;7.150;2023-04-15T10:36:36;4.90;;;3.15;;
2928;SDS011;1474;51.460;7.150;2023-04-15T10:39:02;4.78;;;3.03;;
2928;SDS011;1474;51.460;7.150;2023-04-15T10:42:15;4.40;;;3.22;;
2928;SDS011;1474;51.460;7.150;2023-04-15T10:44:44;4.40;;;3.08;;
2928;SDS011;1474;51.460;7.150;2023-04-15T10:47:16;3.85;;;2.88;;
2928;SDS011;1474;51.460;7.150;2023-04-15T10:52:14;2.55;;;2.25;;
2928;SDS011;1474;51.460;7.150;2023-04-15T10:54:41;3.53;;;2.90;;
2928;SDS011;1474;51.460;7.150;2023-04-15T10:57:22;4.53;;;3.47;;
2928;SDS011;1474;51.460;7.150;2023-04-15T11:02:42;3.40;;;2.20;;
2928;SDS011;1474;51.460;7.150;2023-04-15T11:05:08;4.10;;;2.63;;
2928;SDS011;1474;51.460;7.150;2023-04-15T11:07:48;5.22;;;3.40;;
2928;SDS011;1474;51.460;7.150;2023-04-15T11:12:55;3.97;;;3.10;;
2928;SDS011;1474;51.460;7.150;2023-04-15T11:15:32;4.47;;;2.95;;
2928;SDS011;1474;51.460;7.150;2023-04-15T11:20:52;4.28;;;3.13;;
2928;SDS011;1474;51.460;7.150;2023-04-15T11:23:31;4.28;;;3.38;;
2928;SDS011;1474;51.460;7.150;2023-04-15T11:25:59;5.03;;;3.00;;
2928;SDS011;1474;51.460;7.150;2023-04-15T11:28:27;5.32;;;3.33;;
2928;SDS011;1474;51.460;7.150;2023-04-15T11:30:54;5.40;;;3.40;;
2928;SDS011;1474;51.460;7.150;2023-04-15T11:33:21;4.85;;;3.33;;
2928;SDS011;1474;51.460;7.150;2023-04-15T11:35:48;4.75;;;3.13;;
2928;SDS011;1474;51.460;7.150;2023-04-15T11:38:14;4.80;;;3.30;;
2928;SDS011;1474;51.460;7.150;2023-04-15T11:40:41;5.35;;;2.83;;
2928;SDS011;1474;51.460;7.150;2023-04-15T11:45:32;4.95;;;2.78;;
2928;SDS011;1474;51.460;7.150;2023-04-15T11:48:06;5.80;;;3.47;;
2928;SDS011;1474;51.460;7.150;2023-04-15T11:50:35;4.15;;;2.70;;
2928;SDS011;1474;51.460;7.150;2023-04-15T11:53:04;5.05;;;2.90;;
2928;SDS011;1474;51.460;7.150;2023-04-15T11:58:13;4.15;;;3.10;;
2928;SDS011;1474;51.460;7.150;2023-04-15T12:03:12;4.18;;;2.83;;
2928;SDS011;1474;51.460;7.150;2023-04-15T12:14:33;3.83;;;3.00;;
2928;SDS011;1474;51.460;7.150;2023-04-15T12:16:58;4.93;;;2.78;;
2928;SDS011;1474;51.460;7.150;2023-04-15T12:21:57;4.78;;;2.90;;
2928;SDS011;1474;51.460;7.150;2023-04-15T12:24:24;3.90;;;2.70;;
2928;SDS011;1474;51.460;7.150;2023-04-15T12:26:53;5.57;;;3.25;;
2928;SDS011;1474;51.460;7.150;2023-04-15T12:29:24;5.38;;;3.28;;
2928;SDS011;1474;51.460;7.150;2023-04-15T12:31:52;6.47;;;3.75;;
2928;SDS011;1474;51.460;7.150;2023-04-15T12:34:26;6.63;;;3.28;;
2928;SDS011;1474;51.460;7.150;2023-04-15T12:36:52;4.90;;;3.58;;
2928;SDS011;1474;51.460;7.150;2023-04-15T12:39:22;4.00;;;2.67;;
2928;SDS011;1474;51.460;7.150;2023-04-15T12:41:48;5.85;;;2.78;;
2928;SDS011;1474;51.460;7.150;2023-04-15T12:44:14;3.90;;;2.63;;
2928;SDS011;1474;51.460;7.150;2023-04-15T12:46:39;3.15;;;2.67;;
2928;SDS011;1474;51.460;7.150;2023-04-15T12:49:05;3.80;;;2.20;;
2928;SDS011;1474;51.460;7.150;2023-04-15T12:51:32;3.92;;;3.00;;
2928;SDS011;1474;51.460;7.150;2023-04-15T12:53:57;3.72;;;2.38;;
2928;SDS011;1474;51.460;7.150;2023-04-15T12:56:23;5.25;;;2.72;;
2928;SDS011;1474;51.460;7.150;2023-04-15T12:58:48;4.53;;;2.75;;
2928;SDS011;1474;51.460;7.150;2023-04-15T13:01:15;3.05;;;2.35;;
2928;SDS011;1474;51.460;7.150;2023-04-15T13:03:41;3.95;;;2.22;;
2928;SDS011;1474;51.460;7.150;2023-04-15T13:06:07;5.25;;;3.03;;
2928;SDS011;1474;51.460;7.150;2023-04-15T13:08:32;3.35;;;2.60;;
2928;SDS011;1474;51.460;7.150;2023-04-15T13:10:58;3.80;;;3.03;;
2928;SDS011;1474;51.460;7.150;2023-04-15T13:13:24;2.95;;;2.40;;
2928;SDS011;1474;51.460;7.150;2023-04-15T13:15:50;3.28;;;2.28;;
2928;SDS011;1474;51.460;7.150;2023-04-15T13:18:15;3.33;;;2.20;;
2928;SDS011;1474;51.460;7.150;2023-04-15T13:20:41;4.63;;;2.70;;
2928;SDS011;1474;51.460;7.150;2023-04-15T13:23:06;3.83;;;2.75;;
2928;SDS011;1474;51.460;7.150;2023-04-15T13:25:32;3.97;;;2.45;;
2928;SDS011;1474;51.460;7.150;2023-04-15T13:27:58;3.08;;;2.13;;
2928;SDS011;1474;51.460;7.150;2023-04-15T13:30:25;4.63;;;2.28;;
2928;SDS011;1474;51.460;7.150;2023-04-15T13:32:51;4.90;;;2.70;;
2928;SDS011;1474;51.460;7.150;2023-04-15T13:35:18;4.53;;;2.78;;
2928;SDS011;1474;51.460;7.150;2023-04-15T13:37:44;2.85;;;2.50;;
2928;SDS011;1474;51.460;7.150;2023-04-15T13:40:10;2.75;;;2.35;;
2928;SDS011;1474;51.460;7.150;2023-04-15T13:42:35;5.22;;;2.80;;
2928;SDS011;1474;51.460;7.150;2023-04-15T13:45:01;2.20;;;2.00;;
2928;SDS011;1474;51.460;7.150;2023-04-15T13:47:27;3.50;;;2.55;;
2928;SDS011;1474;51.460;7.150;2023-04-15T13:49:52;2.63;;;2.33;;
2928;SDS011;1474;51.460;7.150;2023-04-15T13:52:20;4.40;;;2.85;;
2928;SDS011;1474;51.460;7.150;2023-04-15T13:54:46;4.32;;;2.60;;
2928;SDS011;1474;51.460;7.150;2023-04-15T13:57:12;5.10;;;2.85;;
2928;SDS011;1474;51.460;7.150;2023-04-15T13:59:38;3.53;;;2.42;;
2928;SDS011;1474;51.460;7.150;2023-04-15T14:02:03;4.55;;;2.38;;
2928;SDS011;1474;51.460;7.150;2023-04-15T14:04:32;3.25;;;2.78;;
2928;SDS011;1474;51.460;7.150;2023-04-15T14:06:57;4.70;;;2.88;;
2928;SDS011;1474;51.460;7.150;2023-04-15T14:09:24;2.65;;;1.95;;
2928;SDS011;1474;51.460;7.150;2023-04-15T14:11:50;4.45;;;2.92;;
2928;SDS011;1474;51.460;7.150;2023-04-15T14:14:16;3.38;;;2.40;;
2928;SDS011;1474;51.460;7.150;2023-04-15T14:16:41;3.80;;;2.80;;
2928;SDS011;1474;51.460;7.150;2023-04-15T14:19:07;3.95;;;2.72;;
2928;SDS011;1474;51.460;7.150;2023-04-15T14:21:33;5.95;;;3.05;;
2928;SDS011;1474;51.460;7.150;2023-04-15T14:23:58;6.13;;;2.95;;
2928;SDS011;1474;51.460;7.150;2023-04-15T14:26:24;4.35;;;3.42;;
2928;SDS011;1474;51.460;7.150;2023-04-15T14:28:50;5.43;;;3.08;;
2928;SDS011;1474;51.460;7.150;2023-04-15T14:31:16;4.00;;;2.85;;
2928;SDS011;1474;51.460;7.150;2023-04-15T14:33:42;5.85;;;3.22;;
2928;SDS011;1474;51.460;7.150;2023-04-15T14:36:08;5.55;;;2.97;;
2928;SDS011;1474;51.460;7.150;2023-04-15T14:38:34;4.85;;;2.90;;
2928;SDS011;1474;51.460;7.150;2023-04-15T14:41:04;3.42;;;2.95;;
2928;SDS011;1474;51.460;7.150;2023-04-15T14:43:31;4.35;;;2.80;;
2928;SDS011;1474;51.460;7.150;2023-04-15T14:45:57;5.35;;;2.92;;
2928;SDS011;1474;51.460;7.150;2023-04-15T14:48:23;4.03;;;3.05;;
2928;SDS011;1474;51.460;7.150;2023-04-15T14:50:48;4.63;;;2.90;;
2928;SDS011;1474;51.460;7.150;2023-04-15T14:53:14;4.10;;;3.33;;
2928;SDS011;1474;51.460;7.150;2023-04-15T14:55:39;2.83;;;2.50;;
2928;SDS011;1474;51.460;7.150;2023-04-15T14:58:05;3.40;;;2.65;;
2928;SDS011;1474;51.460;7.150;2023-04-15T15:00:33;4.28;;;2.45;;
2928;SDS011;1474;51.460;7.150;2023-04-15T15:02:59;3.25;;;2.50;;
2928;SDS011;1474;51.460;7.150;2023-04-15T15:05:25;3.50;;;2.72;;
2928;SDS011;1474;51.460;7.150;2023-04-15T15:07:51;5.57;;;2.85;;
2928;SDS011;1474;51.460;7.150;2023-04-15T15:10:17;4.65;;;3.25;;
2928;SDS011;1474;51.460;7.150;2023-04-15T15:12:42;5.70;;;3.35;;
2928;SDS011;1474;51.460;7.150;2023-04-15T15:15:08;3.13;;;2.78;;
2928;SDS011;1474;51.460;7.150;2023-04-15T15:17:34;3.05;;;2.53;;
2928;SDS011;1474;51.460;7.150;2023-04-15T15:20:00;4.68;;;2.78;;
2928;SDS011;1474;51.460;7.150;2023-04-15T15:22:27;3.80;;;2.70;;
2928;SDS011;1474;51.460;7.150;2023-04-15T15:24:53;4.60;;;2.53;;
2928;SDS011;1474;51.460;7.150;2023-04-15T15:27:18;3.78;;;3.00;;
2928;SDS011;1474;51.460;7.150;2023-04-15T15:29:44;3.30;;;2.45;;
2928;SDS011;1474;51.460;7.150;2023-04-15T15:32:10;7.03;;;3.30;;
2928;SDS011;1474;51.460;7.150;2023-04-15T15:34:35;6.65;;;4.40;;
2928;SDS011;1474;51.460;7.150;2023-04-15T15:37:01;7.50;;;3.38;;
2928;SDS011;1474;51.460;7.150;2023-04-15T15:39:27;4.50;;;3.35;;
2928;SDS011;1474;51.460;7.150;2023-04-15T15:41:53;3.33;;;2.67;;
2928;SDS011;1474;51.460;7.150;2023-04-15T15:44:19;3.95;;;2.63;;
2928;SDS011;1474;51.460;7.150;2023-04-15T15:46:45;8.35;;;5.15;;